sensor_id;sensor_type;location;lat;lon;timestamp;temperature;humidity
17182;DHT22;8706;48.254;16.422;2024-02-26T00:00:37;18.80;58.20
17182;DHT22;8706;48.254;16.422;2024-02-26T00:03:04;18.70;58.10
17182;DHT22;8706;48.254;16.422;2024-02-26T00:05:31;18.80;58.20
17182;DHT22;8706;48.254;16.422;2024-02-26T00:07:58;18.80;58.10
17182;DHT22;8706;48.254;16.422;2024-02-26T00:10:25;18.80;58.30
17182;DHT22;8706;48.254;16.422;2024-02-26T00:12:53;18.70;58.20
17182;DHT22;8706;48.254;16.422;2024-02-26T00:15:20;18.70;58.30
17182;DHT22;8706;48.254;16.422;2024-02-26T00:17:47;18.70;58.30
17182;DHT22;8706;48.254;16.422;2024-02-26T00:20:14;18.70;58.30
17182;DHT22;8706;48.254;16.422;2024-02-26T00:22:41;18.80;58.30
17182;DHT22;8706;48.254;16.422;2024-02-26T00:25:08;18.70;58.30
17182;DHT22;8706;48.254;16.422;2024-02-26T00:27:35;18.70;58.30
17182;DHT22;8706;48.254;16.422;2024-02-26T00:30:03;18.70;58.40
17182;DHT22;8706;48.254;16.422;2024-02-26T00:32:30;18.80;58.40
17182;DHT22;8706;48.254;16.422;2024-02-26T00:34:57;18.70;58.40
17182;DHT22;8706;48.254;16.422;2024-02-26T00:37:24;18.70;58.40
17182;DHT22;8706;48.254;16.422;2024-02-26T00:39:51;18.70;58.50
17182;DHT22;8706;48.254;16.422;2024-02-26T00:42:18;18.70;58.50
17182;DHT22;8706;48.254;16.422;2024-02-26T00:44:45;18.70;58.50
17182;DHT22;8706;48.254;16.422;2024-02-26T00:47:13;18.70;58.40
17182;DHT22;8706;48.254;16.422;2024-02-26T00:49:40;18.70;58.50
17182;DHT22;8706;48.254;16.422;2024-02-26T00:52:07;18.70;58.50
17182;DHT22;8706;48.254;16.422;2024-02-26T00:54:34;18.70;59.10
17182;DHT22;8706;48.254;16.422;2024-02-26T00:57:01;18.70;58.50
17182;DHT22;8706;48.254;16.422;2024-02-26T00:59:28;18.70;58.60
17182;DHT22;8706;48.254;16.422;2024-02-26T01:01:55;18.70;58.70
17182;DHT22;8706;48.254;16.422;2024-02-26T01:04:25;18.70;58.70
17182;DHT22;8706;48.254;16.422;2024-02-26T01:06:52;18.70;58.70
17182;DHT22;8706;48.254;16.422;2024-02-26T01:09:19;18.70;58.70
17182;DHT22;8706;48.254;16.422;2024-02-26T01:11:46;18.60;58.60
17182;DHT22;8706;48.254;16.422;2024-02-26T01:14:13;18.70;58.70
17182;DHT22;8706;48.254;16.422;2024-02-26T01:16:40;18.60;58.60
17182;DHT22;8706;48.254;16.422;2024-02-26T01:19:07;18.60;58.70
17182;DHT22;8706;48.254;16.422;2024-02-26T01:21:35;18.60;58.70
17182;DHT22;8706;48.254;16.422;2024-02-26T01:24:02;18.60;58.80
17182;DHT22;8706;48.254;16.422;2024-02-26T01:26:29;18.60;58.80
17182;DHT22;8706;48.254;16.422;2024-02-26T01:28:56;18.60;58.80
17182;DHT22;8706;48.254;16.422;2024-02-26T01:31:23;18.60;58.90
17182;DHT22;8706;48.254;16.422;2024-02-26T01:33:50;18.60;58.90
17182;DHT22;8706;48.254;16.422;2024-02-26T01:36:17;18.60;58.90
17182;DHT22;8706;48.254;16.422;2024-02-26T01:38:45;18.60;58.90
17182;DHT22;8706;48.254;16.422;2024-02-26T01:41:13;18.60;58.90
17182;DHT22;8706;48.254;16.422;2024-02-26T01:43:40;18.60;58.90
17182;DHT22;8706;48.254;16.422;2024-02-26T01:46:08;18.60;58.90
17182;DHT22;8706;48.254;16.422;2024-02-26T01:48:36;18.60;58.90
17182;DHT22;8706;48.254;16.422;2024-02-26T01:51:03;18.60;58.90
17182;DHT22;8706;48.254;16.422;2024-02-26T01:53:30;18.60;58.90
17182;DHT22;8706;48.254;16.422;2024-02-26T01:55:59;18.60;59.00
17182;DHT22;8706;48.254;16.422;2024-02-26T01:58:25;18.60;59.00
17182;DHT22;8706;48.254;16.422;2024-02-26T02:00:52;18.60;59.00
17182;DHT22;8706;48.254;16.422;2024-02-26T02:03:19;18.60;59.00
17182;DHT22;8706;48.254;16.422;2024-02-26T02:05:46;18.50;59.00
17182;DHT22;8706;48.254;16.422;2024-02-26T02:08:13;18.50;59.10
17182;DHT22;8706;48.254;16.422;2024-02-26T02:10:42;18.50;59.10
17182;DHT22;8706;48.254;16.422;2024-02-26T02:13:10;18.50;59.20
17182;DHT22;8706;48.254;16.422;2024-02-26T02:15:37;18.50;59.10
17182;DHT22;8706;48.254;16.422;2024-02-26T02:18:04;18.50;59.10
17182;DHT22;8706;48.254;16.422;2024-02-26T02:20:33;18.50;59.10
17182;DHT22;8706;48.254;16.422;2024-02-26T02:23:01;18.50;59.20
17182;DHT22;8706;48.254;16.422;2024-02-26T02:25:28;18.50;59.20
17182;DHT22;8706;48.254;16.422;2024-02-26T02:27:55;18.50;59.90
17182;DHT22;8706;48.254;16.422;2024-02-26T02:30:25;18.50;59.30
17182;DHT22;8706;48.254;16.422;2024-02-26T02:32:53;18.50;59.30
17182;DHT22;8706;48.254;16.422;2024-02-26T02:35:20;18.50;59.30
17182;DHT22;8706;48.254;16.422;2024-02-26T02:37:49;18.50;59.30
17182;DHT22;8706;48.254;16.422;2024-02-26T02:40:16;18.40;59.40
17182;DHT22;8706;48.254;16.422;2024-02-26T02:42:43;18.50;59.30
17182;DHT22;8706;48.254;16.422;2024-02-26T02:45:10;18.50;59.30
17182;DHT22;8706;48.254;16.422;2024-02-26T02:47:37;18.50;59.40
17182;DHT22;8706;48.254;16.422;2024-02-26T02:50:05;18.50;59.30
17182;DHT22;8706;48.254;16.422;2024-02-26T02:52:32;18.50;59.30
17182;DHT22;8706;48.254;16.422;2024-02-26T02:55:00;18.50;59.40
17182;DHT22;8706;48.254;16.422;2024-02-26T02:57:27;18.50;59.40
17182;DHT22;8706;48.254;16.422;2024-02-26T02:59:54;18.40;59.40
17182;DHT22;8706;48.254;16.422;2024-02-26T03:02:21;18.50;59.50
17182;DHT22;8706;48.254;16.422;2024-02-26T03:04:50;18.40;59.40
17182;DHT22;8706;48.254;16.422;2024-02-26T03:07:17;18.50;59.40
17182;DHT22;8706;48.254;16.422;2024-02-26T03:09:44;18.50;59.40
17182;DHT22;8706;48.254;16.422;2024-02-26T03:12:12;18.40;59.40
17182;DHT22;8706;48.254;16.422;2024-02-26T03:14:39;18.50;59.50
17182;DHT22;8706;48.254;16.422;2024-02-26T03:17:06;18.40;59.40
17182;DHT22;8706;48.254;16.422;2024-02-26T03:19:33;18.50;59.40
17182;DHT22;8706;48.254;16.422;2024-02-26T03:22:00;18.50;59.40
17182;DHT22;8706;48.254;16.422;2024-02-26T03:24:26;18.50;59.40
17182;DHT22;8706;48.254;16.422;2024-02-26T03:26:53;18.40;59.40
17182;DHT22;8706;48.254;16.422;2024-02-26T03:29:21;18.40;59.40
17182;DHT22;8706;48.254;16.422;2024-02-26T03:31:48;18.40;59.40
17182;DHT22;8706;48.254;16.422;2024-02-26T03:34:15;18.40;59.40
17182;DHT22;8706;48.254;16.422;2024-02-26T03:36:44;18.40;59.50
17182;DHT22;8706;48.254;16.422;2024-02-26T03:39:11;18.40;59.40
17182;DHT22;8706;48.254;16.422;2024-02-26T03:41:38;18.40;59.40
17182;DHT22;8706;48.254;16.422;2024-02-26T03:44:05;18.40;59.40
17182;DHT22;8706;48.254;16.422;2024-02-26T03:46:33;18.40;59.40
17182;DHT22;8706;48.254;16.422;2024-02-26T03:49:00;18.40;59.40
17182;DHT22;8706;48.254;16.422;2024-02-26T03:51:27;18.40;59.40
17182;DHT22;8706;48.254;16.422;2024-02-26T03:53:56;18.40;59.40
17182;DHT22;8706;48.254;16.422;2024-02-26T03:56:24;18.40;59.40
17182;DHT22;8706;48.254;16.422;2024-02-26T03:58:50;18.40;59.50
17182;DHT22;8706;48.254;16.422;2024-02-26T04:01:17;18.40;59.40
17182;DHT22;8706;48.254;16.422;2024-02-26T04:03:46;18.40;59.40
17182;DHT22;8706;48.254;16.422;2024-02-26T04:06:12;18.40;59.50
17182;DHT22;8706;48.254;16.422;2024-02-26T04:08:40;18.40;59.50
17182;DHT22;8706;48.254;16.422;2024-02-26T04:11:07;18.40;59.50
17182;DHT22;8706;48.254;16.422;2024-02-26T04:13:34;18.40;59.40
17182;DHT22;8706;48.254;16.422;2024-02-26T04:16:01;18.40;59.30
17182;DHT22;8706;48.254;16.422;2024-02-26T04:18:28;18.40;59.40
17182;DHT22;8706;48.254;16.422;2024-02-26T04:20:56;18.40;60.00
17182;DHT22;8706;48.254;16.422;2024-02-26T04:23:23;18.40;59.40
17182;DHT22;8706;48.254;16.422;2024-02-26T04:25:50;18.40;59.40
17182;DHT22;8706;48.254;16.422;2024-02-26T04:28:18;18.40;59.30
17182;DHT22;8706;48.254;16.422;2024-02-26T04:30:46;18.50;59.30
17182;DHT22;8706;48.254;16.422;2024-02-26T04:33:13;18.40;59.30
17182;DHT22;8706;48.254;16.422;2024-02-26T04:35:40;18.40;59.30
17182;DHT22;8706;48.254;16.422;2024-02-26T04:38:08;18.40;59.20
17182;DHT22;8706;48.254;16.422;2024-02-26T04:40:35;18.40;59.20
17182;DHT22;8706;48.254;16.422;2024-02-26T04:43:02;18.40;59.20
17182;DHT22;8706;48.254;16.422;2024-02-26T04:45:29;18.40;59.20
17182;DHT22;8706;48.254;16.422;2024-02-26T04:47:56;18.40;59.30
17182;DHT22;8706;48.254;16.422;2024-02-26T04:50:22;18.40;59.20
17182;DHT22;8706;48.254;16.422;2024-02-26T04:52:49;18.40;59.20
17182;DHT22;8706;48.254;16.422;2024-02-26T04:55:17;18.40;59.20
17182;DHT22;8706;48.254;16.422;2024-02-26T04:57:44;18.40;59.20
17182;DHT22;8706;48.254;16.422;2024-02-26T05:00:13;18.40;59.20
17182;DHT22;8706;48.254;16.422;2024-02-26T05:02:40;18.40;59.20
17182;DHT22;8706;48.254;16.422;2024-02-26T05:05:07;18.40;59.20
17182;DHT22;8706;48.254;16.422;2024-02-26T05:07:39;18.40;59.20
17182;DHT22;8706;48.254;16.422;2024-02-26T05:10:07;18.40;59.20
17182;DHT22;8706;48.254;16.422;2024-02-26T05:12:35;18.40;59.20
17182;DHT22;8706;48.254;16.422;2024-02-26T05:15:02;18.40;59.20
17182;DHT22;8706;48.254;16.422;2024-02-26T05:17:29;18.40;59.20
17182;DHT22;8706;48.254;16.422;2024-02-26T05:19:56;18.40;59.20
17182;DHT22;8706;48.254;16.422;2024-02-26T05:22:23;18.40;59.30
17182;DHT22;8706;48.254;16.422;2024-02-26T05:24:49;18.40;59.30
17182;DHT22;8706;48.254;16.422;2024-02-26T05:27:17;18.40;59.30
17182;DHT22;8706;48.254;16.422;2024-02-26T05:29:45;18.40;59.30
17182;DHT22;8706;48.254;16.422;2024-02-26T05:32:12;18.40;59.30
17182;DHT22;8706;48.254;16.422;2024-02-26T05:34:39;18.40;59.30
17182;DHT22;8706;48.254;16.422;2024-02-26T05:37:06;18.40;59.30
17182;DHT22;8706;48.254;16.422;2024-02-26T05:39:34;18.40;59.30
17182;DHT22;8706;48.254;16.422;2024-02-26T05:42:01;18.40;59.30
17182;DHT22;8706;48.254;16.422;2024-02-26T05:44:27;18.40;59.30
17182;DHT22;8706;48.254;16.422;2024-02-26T05:46:56;18.40;59.30
17182;DHT22;8706;48.254;16.422;2024-02-26T05:49:23;18.30;59.30
17182;DHT22;8706;48.254;16.422;2024-02-26T05:51:49;18.40;59.30
17182;DHT22;8706;48.254;16.422;2024-02-26T05:54:16;18.40;59.40
17182;DHT22;8706;48.254;16.422;2024-02-26T05:56:43;18.40;59.40
17182;DHT22;8706;48.254;16.422;2024-02-26T05:59:10;18.30;59.40
17182;DHT22;8706;48.254;16.422;2024-02-26T06:01:37;18.40;59.40
17182;DHT22;8706;48.254;16.422;2024-02-26T06:04:05;18.30;59.30
17182;DHT22;8706;48.254;16.422;2024-02-26T06:06:32;18.40;59.40
17182;DHT22;8706;48.254;16.422;2024-02-26T06:08:59;18.40;59.40
17182;DHT22;8706;48.254;16.422;2024-02-26T06:11:26;18.40;59.30
17182;DHT22;8706;48.254;16.422;2024-02-26T06:13:53;18.40;59.30
17182;DHT22;8706;48.254;16.422;2024-02-26T06:16:19;18.40;59.40
17182;DHT22;8706;48.254;16.422;2024-02-26T06:18:46;18.40;59.30
17182;DHT22;8706;48.254;16.422;2024-02-26T06:21:14;18.40;59.30
17182;DHT22;8706;48.254;16.422;2024-02-26T06:23:41;18.40;59.30
17182;DHT22;8706;48.254;16.422;2024-02-26T06:26:08;18.40;59.20
17182;DHT22;8706;48.254;16.422;2024-02-26T06:28:35;18.50;59.20
17182;DHT22;8706;48.254;16.422;2024-02-26T06:31:06;18.50;59.20
17182;DHT22;8706;48.254;16.422;2024-02-26T06:33:33;18.50;59.20
17182;DHT22;8706;48.254;16.422;2024-02-26T06:36:00;18.50;59.10
17182;DHT22;8706;48.254;16.422;2024-02-26T06:38:28;18.50;59.10
17182;DHT22;8706;48.254;16.422;2024-02-26T06:40:55;18.50;59.10
17182;DHT22;8706;48.254;16.422;2024-02-26T06:43:22;18.60;59.10
17182;DHT22;8706;48.254;16.422;2024-02-26T06:45:49;18.60;59.00
17182;DHT22;8706;48.254;16.422;2024-02-26T06:48:16;18.60;58.90
17182;DHT22;8706;48.254;16.422;2024-02-26T06:50:42;18.60;58.90
17182;DHT22;8706;48.254;16.422;2024-02-26T06:53:10;18.70;58.90
17182;DHT22;8706;48.254;16.422;2024-02-26T06:55:38;18.70;58.80
17182;DHT22;8706;48.254;16.422;2024-02-26T06:58:06;18.70;58.80
17182;DHT22;8706;48.254;16.422;2024-02-26T07:00:33;18.70;58.70
17182;DHT22;8706;48.254;16.422;2024-02-26T07:03:00;18.70;58.70
17182;DHT22;8706;48.254;16.422;2024-02-26T07:05:27;18.80;58.60
17182;DHT22;8706;48.254;16.422;2024-02-26T07:07:53;18.80;58.50
17182;DHT22;8706;48.254;16.422;2024-02-26T07:10:20;18.80;58.50
17182;DHT22;8706;48.254;16.422;2024-02-26T07:12:49;18.90;58.50
17182;DHT22;8706;48.254;16.422;2024-02-26T07:15:16;18.90;58.40
17182;DHT22;8706;48.254;16.422;2024-02-26T07:17:44;19.00;58.40
17182;DHT22;8706;48.254;16.422;2024-02-26T07:20:13;19.00;58.20
17182;DHT22;8706;48.254;16.422;2024-02-26T07:22:40;19.10;58.20
17182;DHT22;8706;48.254;16.422;2024-02-26T07:25:08;19.20;58.00
17182;DHT22;8706;48.254;16.422;2024-02-26T07:27:38;19.30;57.80
17182;DHT22;8706;48.254;16.422;2024-02-26T07:30:08;19.30;57.70
17182;DHT22;8706;48.254;16.422;2024-02-26T07:32:35;19.50;57.50
17182;DHT22;8706;48.254;16.422;2024-02-26T07:35:02;19.50;57.40
17182;DHT22;8706;48.254;16.422;2024-02-26T07:37:29;19.60;57.30
17182;DHT22;8706;48.254;16.422;2024-02-26T07:39:56;19.70;57.10
17182;DHT22;8706;48.254;16.422;2024-02-26T07:42:23;19.90;56.90
17182;DHT22;8706;48.254;16.422;2024-02-26T07:44:50;20.00;56.60
17182;DHT22;8706;48.254;16.422;2024-02-26T07:47:19;20.10;56.30
17182;DHT22;8706;48.254;16.422;2024-02-26T07:49:46;20.30;56.10
17182;DHT22;8706;48.254;16.422;2024-02-26T07:52:13;20.50;55.80
17182;DHT22;8706;48.254;16.422;2024-02-26T07:54:40;20.60;55.50
17182;DHT22;8706;48.254;16.422;2024-02-26T07:57:07;20.70;55.30
17182;DHT22;8706;48.254;16.422;2024-02-26T07:59:33;20.90;55.10
17182;DHT22;8706;48.254;16.422;2024-02-26T08:02:00;21.00;54.80
17182;DHT22;8706;48.254;16.422;2024-02-26T08:04:30;21.20;54.60
17182;DHT22;8706;48.254;16.422;2024-02-26T08:06:57;21.30;54.40
17182;DHT22;8706;48.254;16.422;2024-02-26T08:09:24;21.50;54.20
17182;DHT22;8706;48.254;16.422;2024-02-26T08:11:50;21.60;53.90
17182;DHT22;8706;48.254;16.422;2024-02-26T08:14:17;21.80;53.70
17182;DHT22;8706;48.254;16.422;2024-02-26T08:16:44;22.00;53.50
17182;DHT22;8706;48.254;16.422;2024-02-26T08:19:11;22.10;53.20
17182;DHT22;8706;48.254;16.422;2024-02-26T08:21:41;22.20;53.10
17182;DHT22;8706;48.254;16.422;2024-02-26T08:24:08;22.30;52.90
17182;DHT22;8706;48.254;16.422;2024-02-26T08:26:35;22.30;52.60
17182;DHT22;8706;48.254;16.422;2024-02-26T08:29:02;22.40;52.60
17182;DHT22;8706;48.254;16.422;2024-02-26T08:31:29;22.50;52.40
17182;DHT22;8706;48.254;16.422;2024-02-26T08:33:56;22.60;52.20
17182;DHT22;8706;48.254;16.422;2024-02-26T08:36:23;22.70;52.00
17182;DHT22;8706;48.254;16.422;2024-02-26T08:38:52;22.70;51.90
17182;DHT22;8706;48.254;16.422;2024-02-26T08:41:19;22.90;51.60
17182;DHT22;8706;48.254;16.422;2024-02-26T08:43:45;23.00;51.50
17182;DHT22;8706;48.254;16.422;2024-02-26T08:46:13;23.10;51.10
17182;DHT22;8706;48.254;16.422;2024-02-26T08:48:40;23.30;51.10
17182;DHT22;8706;48.254;16.422;2024-02-26T08:51:07;23.40;50.80
17182;DHT22;8706;48.254;16.422;2024-02-26T08:53:34;23.50;50.60
17182;DHT22;8706;48.254;16.422;2024-02-26T08:56:03;23.20;50.80
17182;DHT22;8706;48.254;16.422;2024-02-26T08:58:30;22.60;51.60
17182;DHT22;8706;48.254;16.422;2024-02-26T09:00:57;23.00;51.40
17182;DHT22;8706;48.254;16.422;2024-02-26T09:03:24;23.10;51.00
17182;DHT22;8706;48.254;16.422;2024-02-26T09:05:51;22.90;51.20
17182;DHT22;8706;48.254;16.422;2024-02-26T09:08:18;22.50;51.80
17182;DHT22;8706;48.254;16.422;2024-02-26T09:10:45;22.20;52.30
17182;DHT22;8706;48.254;16.422;2024-02-26T09:13:13;22.00;52.60
17182;DHT22;8706;48.254;16.422;2024-02-26T09:15:40;21.90;52.80
17182;DHT22;8706;48.254;16.422;2024-02-26T09:18:07;21.90;53.20
17182;DHT22;8706;48.254;16.422;2024-02-26T09:20:34;21.90;53.10
17182;DHT22;8706;48.254;16.422;2024-02-26T09:23:01;21.90;53.20
17182;DHT22;8706;48.254;16.422;2024-02-26T09:25:28;22.00;53.20
17182;DHT22;8706;48.254;16.422;2024-02-26T09:27:55;22.20;52.50
17182;DHT22;8706;48.254;16.422;2024-02-26T09:30:23;22.80;51.90
17182;DHT22;8706;48.254;16.422;2024-02-26T09:32:50;23.70;50.70
17182;DHT22;8706;48.254;16.422;2024-02-26T09:35:17;24.30;50.00
17182;DHT22;8706;48.254;16.422;2024-02-26T09:37:43;24.60;49.40
17182;DHT22;8706;48.254;16.422;2024-02-26T09:40:11;24.90;48.80
17182;DHT22;8706;48.254;16.422;2024-02-26T09:42:43;25.00;48.50
17182;DHT22;8706;48.254;16.422;2024-02-26T09:45:17;25.30;48.30
17182;DHT22;8706;48.254;16.422;2024-02-26T09:47:48;25.40;48.10
17182;DHT22;8706;48.254;16.422;2024-02-26T09:50:17;25.60;47.90
17182;DHT22;8706;48.254;16.422;2024-02-26T09:52:48;25.70;47.50
17182;DHT22;8706;48.254;16.422;2024-02-26T09:55:15;25.80;47.50
17182;DHT22;8706;48.254;16.422;2024-02-26T09:57:45;26.00;47.20
17182;DHT22;8706;48.254;16.422;2024-02-26T10:00:16;26.10;47.20
17182;DHT22;8706;48.254;16.422;2024-02-26T10:02:46;26.20;47.20
17182;DHT22;8706;48.254;16.422;2024-02-26T10:05:14;26.20;47.00
17182;DHT22;8706;48.254;16.422;2024-02-26T10:07:44;26.30;47.00
17182;DHT22;8706;48.254;16.422;2024-02-26T10:10:11;26.30;46.80
17182;DHT22;8706;48.254;16.422;2024-02-26T10:12:39;26.30;46.80
17182;DHT22;8706;48.254;16.422;2024-02-26T10:15:06;26.40;46.70
17182;DHT22;8706;48.254;16.422;2024-02-26T10:17:33;26.40;46.60
17182;DHT22;8706;48.254;16.422;2024-02-26T10:20:15;26.30;46.60
17182;DHT22;8706;48.254;16.422;2024-02-26T10:22:43;26.10;46.80
17182;DHT22;8706;48.254;16.422;2024-02-26T10:25:10;26.20;46.60
17182;DHT22;8706;48.254;16.422;2024-02-26T10:27:37;26.30;46.50
17182;DHT22;8706;48.254;16.422;2024-02-26T10:30:05;26.30;46.70
17182;DHT22;8706;48.254;16.422;2024-02-26T10:32:42;26.30;46.90
17182;DHT22;8706;48.254;16.422;2024-02-26T10:35:09;26.40;46.70
17182;DHT22;8706;48.254;16.422;2024-02-26T10:37:37;26.50;46.30
17182;DHT22;8706;48.254;16.422;2024-02-26T10:40:05;26.50;46.60
17182;DHT22;8706;48.254;16.422;2024-02-26T10:42:32;26.50;46.50
17182;DHT22;8706;48.254;16.422;2024-02-26T10:44:59;26.80;46.40
17182;DHT22;8706;48.254;16.422;2024-02-26T10:47:28;26.90;46.20
17182;DHT22;8706;48.254;16.422;2024-02-26T10:49:56;27.00;46.10
17182;DHT22;8706;48.254;16.422;2024-02-26T10:52:23;26.90;46.00
17182;DHT22;8706;48.254;16.422;2024-02-26T10:54:54;27.00;46.10
17182;DHT22;8706;48.254;16.422;2024-02-26T10:57:24;26.90;46.10
17182;DHT22;8706;48.254;16.422;2024-02-26T10:59:51;26.80;46.10
17182;DHT22;8706;48.254;16.422;2024-02-26T11:02:20;26.80;46.20
17182;DHT22;8706;48.254;16.422;2024-02-26T11:04:47;26.60;46.40
17182;DHT22;8706;48.254;16.422;2024-02-26T11:07:16;26.80;46.30
17182;DHT22;8706;48.254;16.422;2024-02-26T11:09:44;27.20;45.90
17182;DHT22;8706;48.254;16.422;2024-02-26T11:12:14;27.30;45.60
17182;DHT22;8706;48.254;16.422;2024-02-26T11:14:43;27.10;45.70
17182;DHT22;8706;48.254;16.422;2024-02-26T11:17:11;27.40;45.60
17182;DHT22;8706;48.254;16.422;2024-02-26T11:19:41;27.40;45.50
17182;DHT22;8706;48.254;16.422;2024-02-26T11:22:09;27.50;45.40
17182;DHT22;8706;48.254;16.422;2024-02-26T11:24:36;27.70;45.30
17182;DHT22;8706;48.254;16.422;2024-02-26T11:27:07;27.30;45.50
17182;DHT22;8706;48.254;16.422;2024-02-26T11:29:41;27.00;45.80
17182;DHT22;8706;48.254;16.422;2024-02-26T11:32:09;26.40;46.60
17182;DHT22;8706;48.254;16.422;2024-02-26T11:34:36;26.60;46.50
17182;DHT22;8706;48.254;16.422;2024-02-26T11:37:11;27.20;45.90
17182;DHT22;8706;48.254;16.422;2024-02-26T11:39:39;27.20;45.70
17182;DHT22;8706;48.254;16.422;2024-02-26T11:42:07;27.20;45.60
17182;DHT22;8706;48.254;16.422;2024-02-26T11:44:35;27.00;45.90
17182;DHT22;8706;48.254;16.422;2024-02-26T11:47:11;26.60;46.20
17182;DHT22;8706;48.254;16.422;2024-02-26T11:49:38;26.80;46.20
17182;DHT22;8706;48.254;16.422;2024-02-26T11:52:07;26.50;46.40
17182;DHT22;8706;48.254;16.422;2024-02-26T11:54:44;26.10;46.80
17182;DHT22;8706;48.254;16.422;2024-02-26T11:57:24;25.70;47.30
17182;DHT22;8706;48.254;16.422;2024-02-26T11:59:51;25.50;47.60
17182;DHT22;8706;48.254;16.422;2024-02-26T12:02:43;25.40;47.60
17182;DHT22;8706;48.254;16.422;2024-02-26T12:05:12;25.00;47.80
17182;DHT22;8706;48.254;16.422;2024-02-26T12:07:46;24.80;48.00
17182;DHT22;8706;48.254;16.422;2024-02-26T12:10:15;24.90;48.10
17182;DHT22;8706;48.254;16.422;2024-02-26T12:12:42;24.70;48.00
17182;DHT22;8706;48.254;16.422;2024-02-26T12:15:09;24.60;48.40
17182;DHT22;8706;48.254;16.422;2024-02-26T12:17:36;24.40;48.60
17182;DHT22;8706;48.254;16.422;2024-02-26T12:20:12;24.20;48.90
17182;DHT22;8706;48.254;16.422;2024-02-26T12:22:40;24.10;49.00
17182;DHT22;8706;48.254;16.422;2024-02-26T12:25:09;24.00;49.30
17182;DHT22;8706;48.254;16.422;2024-02-26T12:27:36;24.00;49.30
17182;DHT22;8706;48.254;16.422;2024-02-26T12:30:03;24.10;49.40
17182;DHT22;8706;48.254;16.422;2024-02-26T12:32:30;24.20;48.90
17182;DHT22;8706;48.254;16.422;2024-02-26T12:34:57;24.30;49.00
17182;DHT22;8706;48.254;16.422;2024-02-26T12:37:27;24.30;48.70
17182;DHT22;8706;48.254;16.422;2024-02-26T12:39:55;24.30;49.10
17182;DHT22;8706;48.254;16.422;2024-02-26T12:42:21;24.60;48.00
17182;DHT22;8706;48.254;16.422;2024-02-26T12:44:50;24.60;48.50
17182;DHT22;8706;48.254;16.422;2024-02-26T12:47:17;24.20;48.60
17182;DHT22;8706;48.254;16.422;2024-02-26T12:49:47;24.00;49.40
17182;DHT22;8706;48.254;16.422;2024-02-26T12:52:13;23.70;50.00
17182;DHT22;8706;48.254;16.422;2024-02-26T12:54:42;23.70;49.60
17182;DHT22;8706;48.254;16.422;2024-02-26T12:57:11;24.00;48.90
17182;DHT22;8706;48.254;16.422;2024-02-26T12:59:38;24.50;48.70
17182;DHT22;8706;48.254;16.422;2024-02-26T13:02:05;25.00;46.90
17182;DHT22;8706;48.254;16.422;2024-02-26T13:04:32;25.40;46.60
17182;DHT22;8706;48.254;16.422;2024-02-26T13:07:02;25.50;45.80
17182;DHT22;8706;48.254;16.422;2024-02-26T13:09:32;25.40;46.30
17182;DHT22;8706;48.254;16.422;2024-02-26T13:12:04;25.10;46.00
17182;DHT22;8706;48.254;16.422;2024-02-26T13:14:31;24.80;46.70
17182;DHT22;8706;48.254;16.422;2024-02-26T13:16:59;24.50;46.60
17182;DHT22;8706;48.254;16.422;2024-02-26T13:19:27;24.10;47.70
17182;DHT22;8706;48.254;16.422;2024-02-26T13:21:54;23.90;47.70
17182;DHT22;8706;48.254;16.422;2024-02-26T13:24:21;23.70;48.70
17182;DHT22;8706;48.254;16.422;2024-02-26T13:26:54;23.80;48.00
17182;DHT22;8706;48.254;16.422;2024-02-26T13:29:22;24.20;47.10
17182;DHT22;8706;48.254;16.422;2024-02-26T13:31:54;24.40;47.00
17182;DHT22;8706;48.254;16.422;2024-02-26T13:34:25;24.10;47.50
17182;DHT22;8706;48.254;16.422;2024-02-26T13:36:52;23.90;48.70
17182;DHT22;8706;48.254;16.422;2024-02-26T13:39:23;23.70;48.50
17182;DHT22;8706;48.254;16.422;2024-02-26T13:41:50;23.50;48.90
17182;DHT22;8706;48.254;16.422;2024-02-26T13:44:17;23.40;47.50
17182;DHT22;8706;48.254;16.422;2024-02-26T13:46:46;23.30;48.70
17182;DHT22;8706;48.254;16.422;2024-02-26T13:49:13;23.40;49.00
17182;DHT22;8706;48.254;16.422;2024-02-26T13:51:40;23.50;48.00
17182;DHT22;8706;48.254;16.422;2024-02-26T13:54:07;23.60;48.20
17182;DHT22;8706;48.254;16.422;2024-02-26T13:56:35;23.60;47.90
17182;DHT22;8706;48.254;16.422;2024-02-26T13:59:02;23.50;48.60
17182;DHT22;8706;48.254;16.422;2024-02-26T14:01:29;23.40;48.00
17182;DHT22;8706;48.254;16.422;2024-02-26T14:04:00;23.30;48.30
17182;DHT22;8706;48.254;16.422;2024-02-26T14:06:27;23.10;49.70
17182;DHT22;8706;48.254;16.422;2024-02-26T14:08:56;22.90;49.10
17182;DHT22;8706;48.254;16.422;2024-02-26T14:11:23;22.80;49.70
17182;DHT22;8706;48.254;16.422;2024-02-26T14:13:51;22.80;49.20
17182;DHT22;8706;48.254;16.422;2024-02-26T14:16:17;22.80;49.10
17182;DHT22;8706;48.254;16.422;2024-02-26T14:18:45;22.90;49.10
17182;DHT22;8706;48.254;16.422;2024-02-26T14:21:14;23.00;48.50
17182;DHT22;8706;48.254;16.422;2024-02-26T14:23:41;23.10;49.20
17182;DHT22;8706;48.254;16.422;2024-02-26T14:26:10;23.30;48.20
17182;DHT22;8706;48.254;16.422;2024-02-26T14:28:36;23.40;48.20
17182;DHT22;8706;48.254;16.422;2024-02-26T14:31:05;23.50;48.00
17182;DHT22;8706;48.254;16.422;2024-02-26T14:33:32;23.50;47.80
17182;DHT22;8706;48.254;16.422;2024-02-26T14:35:59;23.60;47.70
17182;DHT22;8706;48.254;16.422;2024-02-26T14:38:28;23.60;47.60
17182;DHT22;8706;48.254;16.422;2024-02-26T14:40:56;23.40;48.00
17182;DHT22;8706;48.254;16.422;2024-02-26T14:43:23;23.30;48.00
17182;DHT22;8706;48.254;16.422;2024-02-26T14:45:50;23.20;48.20
17182;DHT22;8706;48.254;16.422;2024-02-26T14:48:16;23.20;48.60
17182;DHT22;8706;48.254;16.422;2024-02-26T14:50:44;23.20;48.20
17182;DHT22;8706;48.254;16.422;2024-02-26T14:53:11;23.20;48.20
17182;DHT22;8706;48.254;16.422;2024-02-26T14:55:39;23.10;48.30
17182;DHT22;8706;48.254;16.422;2024-02-26T14:58:06;23.00;47.90
17182;DHT22;8706;48.254;16.422;2024-02-26T15:00:32;23.00;48.70
17182;DHT22;8706;48.254;16.422;2024-02-26T15:03:01;22.80;48.30
17182;DHT22;8706;48.254;16.422;2024-02-26T15:05:28;22.70;49.50
17182;DHT22;8706;48.254;16.422;2024-02-26T15:07:54;22.60;48.80
17182;DHT22;8706;48.254;16.422;2024-02-26T15:10:22;22.50;49.50
17182;DHT22;8706;48.254;16.422;2024-02-26T15:12:50;22.40;49.40
17182;DHT22;8706;48.254;16.422;2024-02-26T15:15:20;22.40;49.60
17182;DHT22;8706;48.254;16.422;2024-02-26T15:17:47;22.30;49.60
17182;DHT22;8706;48.254;16.422;2024-02-26T15:20:14;22.20;50.10
17182;DHT22;8706;48.254;16.422;2024-02-26T15:22:42;22.20;50.20
17182;DHT22;8706;48.254;16.422;2024-02-26T15:25:08;22.10;50.60
17182;DHT22;8706;48.254;16.422;2024-02-26T15:27:35;22.10;50.60
17182;DHT22;8706;48.254;16.422;2024-02-26T15:30:05;22.00;50.80
17182;DHT22;8706;48.254;16.422;2024-02-26T15:32:32;21.90;50.60